Time;durP1;ratioP1;P1;durP2;ratioP2;P2;SDS_P1;SDS_P2;PMS_P1;PMS_P2;Temp;Humidity;BMP_temperature;BMP_pressure;BME280_temperature;BME280_humidity;BME280_pressure;Samples;Min_cycle;Max_cycle;Signal;HPM_P1;HPM_P2
2021/01/21 00:23:19;;;;;;;4.45;1.60;;;;;;;;;;4216342;34;20517;-85
2021/01/21 00:29:19;;;;;;;3.45;1.60;;;;;;;;;;4301389;33;20247;-87
2021/01/21 00:31:59;;;;;;;;;;;;;;;;;;;;;
2021/01/21 00:34:34;;;;;;;2.58;1.40;;;;;;;;;;4258237;33;20192;-86
2021/01/21 00:46:19;;;;;;;4.93;2.10;;;;;;;;;;4272188;33;20175;-83
2021/01/21 00:54:52;;;;;;;3.58;1.90;;;;;;;;;;4406741;32;20652;-82
2021/01/21 01:00:37;;;;;;;;;;;;;;;;;;;;;
2021/01/21 01:06:18;;;;;;;4.85;2.00;;;;;;;;;;4344720;33;20138;-82
2021/01/21 01:09:01;;;;;;;3.83;2.10;;;;;;;;;;4331781;33;20190;-82
2021/01/21 01:18:37;;;;;;;;;;;;;;;;;;;;;
2021/01/21 01:27:43;;;;;;;3.10;1.70;;;;;;;;;;4329492;33;20162;-81
2021/01/21 01:37:42;;;;;;;;;;;;;;;;;;;;;
2021/01/21 01:45:29;;;;;;;2.85;1.65;;;;;;;;;;4271322;33;20607;-82
2021/01/21 01:55:27;;;;;;;;;;;;;;;;;;;;;
2021/01/21 02:20:06;;;;;;;4.07;1.12;;;;;;;;;;4177243;34;20312;-87
2021/01/21 02:22:56;;;;;;;;;;;;;;;;;;;;;
2021/01/21 02:25:48;;;;;;;3.35;1.12;;;;;;;;;;4257033;33;20156;-86
2021/01/21 02:39:59;;;;;;;1.95;1.60;;;;;;;;;;4351891;32;20184;-86
2021/01/21 02:43:07;;;;;;;;;;;;;;;;;;;;;
2021/01/21 02:48:36;;;;;;;4.15;1.52;;;;;;;;;;4358331;33;20154;-88
2021/01/21 02:51:29;;;;;;;3.12;1.08;;;;;;;;;;4328973;33;20197;-87
2021/01/21 03:00:27;;;;;;;3.55;1.45;;;;;;;;;;4373386;32;20173;-86
2021/01/21 03:15:31;;;;;;;3.00;1.55;;;;;;;;;;4256632;33;20737;-84
2021/01/21 03:18:33;;;;;;;4.00;1.75;;;;;;;;;;4255077;33;20256;-83
2021/01/21 03:24:19;;;;;;;6.97;1.48;;;;;;;;;;4342531;33;20147;-82
2021/01/21 03:26:53;;;;;;;3.58;1.10;;;;;;;;;;4330405;33;20159;-83
2021/01/21 03:32:44;;;;;;;7.57;1.37;;;;;;;;;;4328360;33;20198;-82
2021/01/21 03:38:42;;;;;;;5.50;1.10;;;;;;;;;;4283245;33;20191;-85
2021/01/21 03:41:23;;;;;;;9.17;1.43;;;;;;;;;;4287396;33;20214;-84
2021/01/21 03:44:07;;;;;;;9.53;1.20;;;;;;;;;;4316744;33;20664;-85
2021/01/21 03:52:43;;;;;;;5.23;1.40;;;;;;;;;;4345892;32;20173;-84
2021/01/21 03:55:16;;;;;;;12.07;1.50;;;;;;;;;;4387842;32;20162;-86
2021/01/21 03:57:58;;;;;;;5.23;1.27;;;;;;;;;;4391048;32;20224;-83
2021/01/21 04:00:30;;;;;;;3.47;0.83;;;;;;;;;;4391352;32;20170;-82
2021/01/21 04:02:56;;;;;;;9.25;1.55;;;;;;;;;;4391932;32;20175;-83
2021/01/21 04:05:21;;;;;;;5.70;0.80;;;;;;;;;;4391252;32;20162;-84
2021/01/21 04:07:54;;;;;;;8.67;1.10;;;;;;;;;;4394132;32;20631;-81
2021/01/21 04:14:07;;;;;;;15.80;2.07;;;;;;;;;;4325978;33;20175;-84
2021/01/21 04:17:00;;;;;;;10.63;1.57;;;;;;;;;;4333860;32;20205;-84
2021/01/21 04:20:11;;;;;;;;;;;;;;;;;;;;;
2021/01/21 04:31:41;;;;;;;11.80;1.87;;;;;;;;;;4343960;33;20632;-85
2021/01/21 04:37:23;;;;;;;11.77;2.43;;;;;;;;;;4344531;33;20207;-85
2021/01/21 04:46:11;;;;;;;8.90;1.77;;;;;;;;;;4286159;33;20167;-87
2021/01/21 05:06:57;;;;;;;13.93;2.30;;;;;;;;;;4258022;33;20237;-88
2021/01/21 05:10:13;;;;;;;;;;;;;;;;;;;;;
2021/01/21 05:22:20;;;;;;;12.07;1.90;;;;;;;;;;4242577;33;20243;-88
2021/01/21 05:52:37;;;;;;;;;;;;;;;;;;;;;
2021/01/21 05:55:08;;;;;;;7.10;1.40;;;;;;;;;;4299304;33;20144;-89
2021/01/21 05:58:11;;;;;;;;;;;;;;;;;;;;;
2021/01/21 06:01:10;;;;;;;5.17;1.23;;;;;;;;;;4272994;33;20171;-87
2021/01/21 06:56:15;;;;;;;6.00;1.20;;;;;;;;;;4270426;33;20553;-82
2021/01/21 07:07:58;;;;;;;7.43;1.60;;;;;;;;;;4322728;33;20161;-88
2021/01/21 07:23:08;;;;;;;11.63;1.90;;;;;;;;;;4287932;33;20179;-88
2021/01/21 07:31:50;;;;;;;8.73;1.50;;;;;;;;;;4316980;33;20186;-87
2021/01/21 07:37:34;;;;;;;8.47;1.57;;;;;;;;;;4314634;33;20206;-87
2021/01/21 07:46:26;;;;;;;;;;;;;;;;;;;;;
2021/01/21 07:49:15;;;;;;;10.97;1.60;;;;;;;;;;4375307;32;20147;-87
2021/01/21 07:58:18;;;;;;;7.13;1.60;;;;;;;;;;4300473;33;20199;-88
2021/01/21 08:01:20;;;;;;;7.97;1.43;;;;;;;;;;4268172;33;20165;-88
2021/01/21 08:22:53;;;;;;;5.43;1.93;;;;;;;;;;4272232;33;20160;-85
2021/01/21 08:25:36;;;;;;;6.67;1.90;;;;;;;;;;4259863;33;20249;-85
2021/01/21 08:31:14;;;;;;;8.33;1.73;;;;;;;;;;4271830;33;20704;-85
2021/01/21 08:34:01;;;;;;;8.03;1.87;;;;;;;;;;4280605;33;20171;-78
2021/01/21 08:36:49;;;;;;;8.37;2.00;;;;;;;;;;4324138;33;20235;-78
2021/01/21 08:39:20;;;;;;;11.43;2.00;;;;;;;;;;4360040;32;20174;-81
2021/01/21 08:42:14;;;;;;;9.80;1.83;;;;;;;;;;4350942;32;20225;-82
2021/01/21 08:48:15;;;;;;;8.73;1.80;;;;;;;;;;4327713;33;20182;-81
2021/01/21 08:50:52;;;;;;;11.17;1.63;;;;;;;;;;4282845;33;20256;-83
2021/01/21 08:53:41;;;;;;;8.63;1.70;;;;;;;;;;4347647;32;20165;-83
2021/01/21 08:56:15;;;;;;;11.23;2.03;;;;;;;;;;4361470;32;20154;-84
2021/01/21 08:58:41;;;;;;;13.23;2.10;;;;;;;;;;4360848;32;20925;-82
2021/01/21 09:01:34;;;;;;;9.67;2.37;;;;;;;;;;4373441;32;20297;-85
2021/01/21 09:04:03;;;;;;;8.07;1.80;;;;;;;;;;4361184;32;20232;-83
2021/01/21 09:06:55;;;;;;;4.97;1.70;;;;;;;;;;4348952;32;20237;-83
2021/01/21 09:09:39;;;;;;;11.37;2.07;;;;;;;;;;4373751;32;20151;-82
2021/01/21 09:12:14;;;;;;;6.73;1.27;;;;;;;;;;4373948;32;20123;-83
2021/01/21 09:14:44;;;;;;;9.77;2.00;;;;;;;;;;4373427;32;20654;-81
2021/01/21 09:17:41;;;;;;;9.43;2.20;;;;;;;;;;4360993;32;20190;-80
2021/01/21 09:20:20;;;;;;;10.53;2.13;;;;;;;;;;4316479;33;20164;-78
2021/01/21 09:23:08;;;;;;;14.80;2.00;;;;;;;;;;4316212;33;20198;-78
2021/01/21 09:26:34;;;;;;;5.53;1.60;;;;;;;;;;4296229;33;20184;-76
2021/01/21 09:28:50;;;;;;;9.07;2.23;;;;;;;;;;4295485;33;20168;-76
2021/01/21 09:31:31;;;;;;;10.30;2.33;;;;;;;;;;4285277;33;20288;-77
2021/01/21 09:34:02;;;;;;;6.83;1.93;;;;;;;;;;4284997;33;20184;-76
2021/01/21 09:36:46;;;;;;;8.77;1.83;;;;;;;;;;4298429;33;20293;-76
2021/01/21 09:39:12;;;;;;;9.17;1.67;;;;;;;;;;4344749;33;20206;-76
2021/01/21 09:41:39;;;;;;;8.53;2.10;;;;;;;;;;4345377;33;20193;-77
2021/01/21 09:44:05;;;;;;;11.40;1.80;;;;;;;;;;4345743;33;20743;-76
2021/01/21 09:46:47;;;;;;;11.73;1.77;;;;;;;;;;4345413;33;20178;-76
2021/01/21 09:49:26;;;;;;;9.23;2.13;;;;;;;;;;4352740;32;20201;-78
2021/01/21 09:52:07;;;;;;;16.10;1.80;;;;;;;;;;4369988;32;20646;-77
2021/01/21 09:54:38;;;;;;;9.90;1.73;;;;;;;;;;4360009;32;20785;-77
2021/01/21 09:57:11;;;;;;;9.93;1.80;;;;;;;;;;4359906;32;20237;-77
2021/01/21 09:59:52;;;;;;;8.67;2.03;;;;;;;;;;4360150;32;20146;-79
2021/01/21 10:02:19;;;;;;;7.40;1.47;;;;;;;;;;4359820;32;20200;-78
2021/01/21 10:04:45;;;;;;;8.60;2.10;;;;;;;;;;4359589;32;20749;-78
2021/01/21 10:07:13;;;;;;;9.13;1.57;;;;;;;;;;4346882;32;20166;-77
2021/01/21 10:12:39;;;;;;;10.00;1.53;;;;;;;;;;4371772;32;20155;-78
2021/01/21 10:15:04;;;;;;;7.93;1.50;;;;;;;;;;4347131;32;20202;-78
2021/01/21 10:17:30;;;;;;;6.87;1.60;;;;;;;;;;4372482;32;20544;-78
2021/01/21 10:19:56;;;;;;;5.67;1.47;;;;;;;;;;4386432;32;20250;-77
2021/01/21 10:22:21;;;;;;;7.57;1.47;;;;;;;;;;4389812;32;20139;-73
2021/01/21 10:24:47;;;;;;;8.47;1.57;;;;;;;;;;4386337;32;20200;-74
2021/01/21 10:27:12;;;;;;;7.67;1.33;;;;;;;;;;4386922;32;20163;-78
2021/01/21 10:29:45;;;;;;;6.33;1.30;;;;;;;;;;4388117;32;20240;-78
2021/01/21 10:32:19;;;;;;;7.93;1.87;;;;;;;;;;4375970;32;20162;-81
2021/01/21 10:34:44;;;;;;;6.27;1.37;;;;;;;;;;4398239;32;20181;-80
2021/01/21 10:37:12;;;;;;;8.13;1.70;;;;;;;;;;4388295;32;20492;-79
2021/01/21 10:40:14;;;;;;;10.17;1.40;;;;;;;;;;4388902;32;20253;-80
2021/01/21 10:42:45;;;;;;;5.80;1.10;;;;;;;;;;4359210;32;20161;-80
2021/01/21 10:45:19;;;;;;;10.50;1.70;;;;;;;;;;4390675;32;20154;-79
2021/01/21 10:47:48;;;;;;;7.27;1.40;;;;;;;;;;4387130;32;20221;-79
2021/01/21 10:53:09;;;;;;;5.33;1.00;;;;;;;;;;4386565;32;20517;-82
2021/01/21 10:55:35;;;;;;;9.20;1.60;;;;;;;;;;4393620;32;20163;-78
2021/01/21 10:58:03;;;;;;;5.40;1.37;;;;;;;;;;4393404;32;20161;-79
2021/01/21 11:00:28;;;;;;;3.90;1.63;;;;;;;;;;4393491;32;20158;-79
2021/01/21 11:02:57;;;;;;;6.87;1.57;;;;;;;;;;4387484;32;20177;-78
2021/01/21 11:05:29;;;;;;;7.23;1.23;;;;;;;;;;4378207;32;20170;-79
2021/01/21 11:08:21;;;;;;;13.40;2.47;;;;;;;;;;4377700;32;20218;-79
2021/01/21 11:10:56;;;;;;;11.93;1.70;;;;;;;;;;4374375;32;20162;-78
2021/01/21 11:13:31;;;;;;;7.83;1.70;;;;;;;;;;4390730;32;20242;-79
2021/01/21 11:16:10;;;;;;;8.57;1.30;;;;;;;;;;4393055;32;20157;-78
2021/01/21 11:18:55;;;;;;;5.13;1.70;;;;;;;;;;4390874;32;20150;-79
2021/01/21 11:21:23;;;;;;;8.70;1.70;;;;;;;;;;4378926;32;20154;-79
2021/01/21 11:23:57;;;;;;;9.13;1.90;;;;;;;;;;4378021;32;20174;-80
2021/01/21 11:26:34;;;;;;;4.80;1.70;;;;;;;;;;4389926;32;20579;-79
2021/01/21 11:29:02;;;;;;;9.40;1.63;;;;;;;;;;4393128;32;20567;-79
2021/01/21 11:31:53;;;;;;;9.87;1.90;;;;;;;;;;4392654;32;20233;-79
2021/01/21 11:34:24;;;;;;;7.07;1.85;;;;;;;;;;4392725;32;20162;-79
2021/01/21 11:37:26;;;;;;;5.13;1.30;;;;;;;;;;4392874;32;20150;-80
2021/01/21 11:42:43;;;;;;;5.30;1.30;;;;;;;;;;4344067;33;20182;-80
2021/01/21 11:45:17;;;;;;;6.25;1.92;;;;;;;;;;4344709;33;20586;-81
2021/01/21 11:47:45;;;;;;;7.72;1.40;;;;;;;;;;4344787;33;20226;-79
2021/01/21 11:50:11;;;;;;;7.72;1.58;;;;;;;;;;4344409;33;20159;-80
2021/01/21 11:52:37;;;;;;;5.57;1.60;;;;;;;;;;4332527;33;20172;-80
2021/01/21 11:55:03;;;;;;;7.95;1.80;;;;;;;;;;4344277;33;20156;-78
2021/01/21 11:57:31;;;;;;;5.22;1.35;;;;;;;;;;4331948;33;20668;-81
2021/01/21 12:03:00;;;;;;;8.15;1.50;;;;;;;;;;4329955;33;20238;-79
2021/01/21 12:06:00;;;;;;;5.57;1.35;;;;;;;;;;4357299;33;20166;-80
2021/01/21 12:08:38;;;;;;;4.00;1.48;;;;;;;;;;4351860;32;20160;-79
2021/01/21 12:11:06;;;;;;;8.52;1.50;;;;;;;;;;4344611;33;20762;-80
2021/01/21 12:13:53;;;;;;;6.05;1.23;;;;;;;;;;4344145;33;20723;-79
2021/01/21 12:16:27;;;;;;;7.82;1.75;;;;;;;;;;4344870;33;20155;-79
2021/01/21 12:23:01;;;;;;;6.03;2.03;;;;;;;;;;4314698;33;20178;-79
2021/01/21 12:25:27;;;;;;;9.93;1.90;;;;;;;;;;4314997;33;20159;-80
2021/01/21 12:27:55;;;;;;;10.23;1.67;;;;;;;;;;4314514;33;20164;-80
2021/01/21 12:30:54;;;;;;;7.65;1.70;;;;;;;;;;4337931;32;20148;-80
2021/01/21 12:33:28;;;;;;;6.90;1.50;;;;;;;;;;4391148;32;20138;-79
2021/01/21 12:35:56;;;;;;;8.75;1.80;;;;;;;;;;4364900;32;20491;-80
2021/01/21 12:38:39;;;;;;;7.82;1.60;;;;;;;;;;4376590;32;20206;-79
2021/01/21 12:41:13;;;;;;;7.05;1.67;;;;;;;;;;4377386;32;20154;-80
2021/01/21 12:43:39;;;;;;;8.20;2.27;;;;;;;;;;4383942;32;20161;-80
2021/01/21 12:46:06;;;;;;;7.77;1.90;;;;;;;;;;4392063;32;20604;-82
2021/01/21 12:48:51;;;;;;;4.53;1.37;;;;;;;;;;4404350;32;20297;-80
2021/01/21 12:51:19;;;;;;;9.97;2.20;;;;;;;;;;4392040;32;20162;-79
2021/01/21 12:54:00;;;;;;;;;;;;;;;;;;;;;
2021/01/21 12:56:28;;;;;;;6.60;1.97;;;;;;;;;;4405702;32;20141;-81
2021/01/21 12:59:14;;;;;;;8.03;1.73;;;;;;;;;;4390591;32;20151;-81
2021/01/21 13:01:50;;;;;;;4.47;1.73;;;;;;;;;;4406167;32;20183;-79
2021/01/21 13:04:27;;;;;;;8.83;1.63;;;;;;;;;;4405990;32;20113;-79
2021/01/21 13:07:06;;;;;;;9.20;2.03;;;;;;;;;;4405736;32;20183;-80
2021/01/21 13:09:51;;;;;;;6.20;1.65;;;;;;;;;;4405793;32;20169;-80
2021/01/21 13:12:35;;;;;;;10.27;1.65;;;;;;;;;;4404130;32;20204;-79
2021/01/21 13:15:07;;;;;;;3.05;1.33;;;;;;;;;;4405163;32;20221;-80
2021/01/21 13:17:39;;;;;;;6.68;1.50;;;;;;;;;;4378743;32;20161;-80
2021/01/21 13:20:08;;;;;;;5.72;1.52;;;;;;;;;;4392094;32;20237;-79
2021/01/21 13:23:06;;;;;;;6.85;1.52;;;;;;;;;;4391643;32;20158;-80
2021/01/21 13:28:43;;;;;;;4.10;1.87;;;;;;;;;;4390404;32;20145;-81
2021/01/21 13:31:17;;;;;;;6.37;1.13;;;;;;;;;;4390379;32;20456;-81
2021/01/21 13:33:55;;;;;;;;;;;;;;;;;;;;;
2021/01/21 13:36:32;;;;;;;7.75;1.48;;;;;;;;;;4313623;33;20168;-80
2021/01/21 13:42:09;;;;;;;7.82;1.77;;;;;;;;;;4328699;33;20182;-82
2021/01/21 13:45:13;;;;;;;5.07;1.52;;;;;;;;;;4316094;33;20406;-81
2021/01/21 13:48:14;;;;;;;6.05;1.83;;;;;;;;;;4306722;33;20175;-79
2021/01/21 13:50:50;;;;;;;7.12;1.40;;;;;;;;;;4285267;33;20167;-80
2021/01/21 13:53:22;;;;;;;9.57;1.80;;;;;;;;;;4298282;33;20209;-80
2021/01/21 13:56:07;;;;;;;5.93;1.60;;;;;;;;;;4316278;33;20190;-81
2021/01/21 13:58:42;;;;;;;6.50;1.35;;;;;;;;;;4316898;33;20535;-82
2021/01/21 14:01:19;;;;;;;8.68;2.00;;;;;;;;;;4371001;32;20176;-81
2021/01/21 14:04:14;;;;;;;5.20;1.47;;;;;;;;;;4390938;32;20161;-81
2021/01/21 14:07:10;;;;;;;5.45;1.25;;;;;;;;;;4405105;32;20146;-80
2021/01/21 14:09:54;;;;;;;6.43;1.17;;;;;;;;;;4393411;32;20161;-80
2021/01/21 14:13:13;;;;;;;6.10;1.40;;;;;;;;;;4391869;32;20199;-80
2021/01/21 14:15:50;;;;;;;6.87;1.20;;;;;;;;;;4396900;32;20217;-80
2021/01/21 14:19:15;;;;;;;;;;;;;;;;;;;;;
2021/01/21 14:21:33;;;;;;;;;;;;;;;;;;;;;
2021/01/21 14:24:06;;;;;;;3.28;1.23;;;;;;;;;;4381722;32;20172;-82
2021/01/21 14:27:05;;;;;;;;;;;;;;;;;;;;;
2021/01/21 14:30:20;;;;;;;;;;;;;;;;;;;;;
2021/01/21 14:33:07;;;;;;;4.10;1.53;;;;;;;;;;4315536;33;20135;-81
2021/01/21 14:35:41;;;;;;;5.53;2.30;;;;;;;;;;4342254;33;20205;-82
2021/01/21 14:38:13;;;;;;;7.17;1.40;;;;;;;;;;4343263;33;20631;-81
2021/01/21 14:40:57;;;;;;;5.15;1.58;;;;;;;;;;4341112;33;20185;-81
2021/01/21 14:46:52;;;;;;;10.13;1.67;;;;;;;;;;4313280;33;20170;-82
2021/01/21 14:49:35;;;;;;;9.27;1.70;;;;;;;;;;4309952;33;20190;-82
2021/01/21 14:52:26;;;;;;;;;;;;;;;;;;;;;
2021/01/21 14:55:15;;;;;;;6.73;1.40;;;;;;;;;;4303358;33;20148;-81
2021/01/21 14:57:57;;;;;;;;;;;;;;;;;;;;;
2021/01/21 15:00:40;;;;;;;6.62;1.50;;;;;;;;;;4313182;33;20362;-81
2021/01/21 15:04:12;;;;;;;;;;;;;;;;;;;;;
2021/01/21 15:10:25;;;;;;;;;;;;;;;;;;;;;
2021/01/21 15:13:19;;;;;;;4.97;1.53;;;;;;;;;;4309403;33;20156;-83
2021/01/21 15:15:48;;;;;;;10.40;1.60;;;;;;;;;;4301453;33;20148;-82
2021/01/21 15:18:57;;;;;;;8.07;1.07;;;;;;;;;;4355200;32;20459;-83
2021/01/21 15:21:50;;;;;;;6.80;1.30;;;;;;;;;;4373665;32;20182;-83
2021/01/21 15:33:39;;;;;;;2.50;1.13;;;;;;;;;;4305969;33;20194;-81
2021/01/21 15:39:26;;;;;;;6.73;1.93;;;;;;;;;;4301402;33;20171;-81
2021/01/21 15:45:36;;;;;;;4.93;1.13;;;;;;;;;;4283605;33;20161;-81
2021/01/21 15:53:41;;;;;;;9.73;1.57;;;;;;;;;;4256760;33;20552;-82
2021/01/21 15:56:40;;;;;;;4.60;1.20;;;;;;;;;;4310401;33;20150;-83
2021/01/21 15:59:41;;;;;;;7.30;1.57;;;;;;;;;;4344953;33;20197;-83
2021/01/21 16:02:14;;;;;;;5.93;1.50;;;;;;;;;;4342396;33;20178;-82
2021/01/21 16:04:57;;;;;;;5.70;1.40;;;;;;;;;;4377156;32;20165;-82
2021/01/21 16:07:34;;;;;;;9.50;1.47;;;;;;;;;;4388159;32;20184;-83
2021/01/21 16:10:12;;;;;;;5.07;1.57;;;;;;;;;;4389661;32;20205;-84
2021/01/21 16:12:45;;;;;;;6.47;1.50;;;;;;;;;;4383905;32;20189;-82
2021/01/21 16:15:10;;;;;;;7.27;1.50;;;;;;;;;;4393210;32;20149;-81
2021/01/21 16:17:36;;;;;;;5.87;1.60;;;;;;;;;;4392635;32;20222;-82
2021/01/21 16:23:25;;;;;;;;;;;;;;;;;;;;;
2021/01/21 16:28:57;;;;;;;6.07;1.53;;;;;;;;;;4344703;33;20159;-83
2021/01/21 16:31:32;;;;;;;5.87;1.37;;;;;;;;;;4327064;33;20172;-83
2021/01/21 16:34:21;;;;;;;;;;;;;;;;;;;;;
2021/01/21 16:37:12;;;;;;;6.90;1.67;;;;;;;;;;4325245;33;20135;-82
2021/01/21 16:39:49;;;;;;;7.10;1.37;;;;;;;;;;4316865;33;20160;-82
2021/01/21 16:42:23;;;;;;;6.23;1.30;;;;;;;;;;4335630;32;20232;-83
2021/01/21 16:45:12;;;;;;;9.33;1.90;;;;;;;;;;4375870;32;20166;-83
2021/01/21 16:47:54;;;;;;;7.97;1.20;;;;;;;;;;4363267;32;20718;-84
2021/01/21 16:56:46;;;;;;;7.30;1.60;;;;;;;;;;4329502;33;20198;-84
2021/01/21 16:59:27;;;;;;;5.35;1.60;;;;;;;;;;4392214;32;20176;-82
2021/01/21 17:02:06;;;;;;;8.63;1.40;;;;;;;;;;4377531;32;20216;-82
2021/01/21 17:04:36;;;;;;;10.80;1.57;;;;;;;;;;4392002;32;20184;-83
2021/01/21 17:07:02;;;;;;;7.13;1.57;;;;;;;;;;4377186;32;20228;-82
2021/01/21 17:09:28;;;;;;;9.25;2.05;;;;;;;;;;4377694;32;20599;-82
2021/01/21 17:11:53;;;;;;;9.35;2.28;;;;;;;;;;4377289;32;20626;-84
2021/01/21 17:14:46;;;;;;;4.67;1.50;;;;;;;;;;4377044;32;20158;-84
2021/01/21 17:17:29;;;;;;;8.17;1.43;;;;;;;;;;4374878;32;20162;-83
2021/01/21 17:19:54;;;;;;;10.47;1.47;;;;;;;;;;4377026;32;20154;-83
2021/01/21 17:22:19;;;;;;;4.97;1.30;;;;;;;;;;4376871;32;20173;-84
2021/01/21 17:31:05;;;;;;;10.50;1.70;;;;;;;;;;4329094;33;20236;-84
2021/01/21 17:33:35;;;;;;;7.27;1.57;;;;;;;;;;4389192;32;20161;-84
2021/01/21 17:36:29;;;;;;;10.30;1.77;;;;;;;;;;4392386;32;20501;-83
2021/01/21 17:38:55;;;;;;;8.20;2.00;;;;;;;;;;4403892;32;20500;-84
2021/01/21 17:44:30;;;;;;;10.83;2.03;;;;;;;;;;4405884;32;20149;-83
2021/01/21 17:47:21;;;;;;;7.67;1.90;;;;;;;;;;4405654;32;20158;-83
2021/01/21 17:50:01;;;;;;;9.83;1.90;;;;;;;;;;4406815;32;20216;-83
2021/01/21 17:52:32;;;;;;;7.23;1.43;;;;;;;;;;4404991;32;20229;-83
2021/01/21 17:55:19;;;;;;;7.00;1.53;;;;;;;;;;4406632;32;20184;-83
2021/01/21 17:58:14;;;;;;;10.40;1.37;;;;;;;;;;4406463;32;20215;-83
2021/01/21 18:01:05;;;;;;;6.45;1.48;;;;;;;;;;4406768;32;20170;-82
2021/01/21 18:17:20;;;;;;;;;;;;;;;;;;;;;
2021/01/21 18:23:08;;;;;;;;;;;;;;;;;;;;;
2021/01/21 18:37:56;;;;;;;3.40;0.80;;;;;;;;;;4256350;33;20172;-82
2021/01/21 18:40:31;;;;;;;2.57;0.90;;;;;;;;;;4264353;33;20223;-81
2021/01/21 18:42:59;;;;;;;4.03;0.87;;;;;;;;;;4383303;32;20508;-79
2021/01/21 18:45:33;;;;;;;3.60;1.00;;;;;;;;;;4405918;32;20217;-81
2021/01/21 18:48:04;;;;;;;7.80;1.53;;;;;;;;;;4394006;32;20249;-81
2021/01/21 18:50:31;;;;;;;4.37;1.20;;;;;;;;;;4405901;32;20536;-80
2021/01/21 18:53:06;;;;;;;;;;;;;;;;;;;;;
2021/01/21 18:55:45;;;;;;;4.73;1.40;;;;;;;;;;4357608;33;20162;-80
2021/01/21 18:58:29;;;;;;;;;;;;;;;;;;;;;
2021/01/21 19:01:07;;;;;;;4.50;1.73;;;;;;;;;;4420092;32;20306;-81
2021/01/21 19:03:40;;;;;;;4.60;1.37;;;;;;;;;;4405760;32;20181;-82
2021/01/21 19:06:06;;;;;;;3.43;1.53;;;;;;;;;;4393310;32;20154;-79
2021/01/21 19:08:34;;;;;;;5.40;1.70;;;;;;;;;;4391795;32;20239;-79
2021/01/21 19:11:15;;;;;;;4.47;1.97;;;;;;;;;;4389395;32;20650;-79
2021/01/21 19:13:40;;;;;;;7.03;1.73;;;;;;;;;;4391814;32;20166;-79
2021/01/21 19:16:08;;;;;;;8.37;2.00;;;;;;;;;;4398449;32;20162;-80
2021/01/21 19:19:02;;;;;;;3.43;1.60;;;;;;;;;;4407328;32;20146;-79
2021/01/21 19:21:40;;;;;;;6.70;1.93;;;;;;;;;;4407064;32;20180;-80
2021/01/21 19:24:16;;;;;;;5.53;2.10;;;;;;;;;;4403677;32;20149;-80
2021/01/21 19:27:06;;;;;;;8.70;2.20;;;;;;;;;;4393054;32;20154;-79
2021/01/21 19:29:38;;;;;;;5.53;2.07;;;;;;;;;;4393760;32;20231;-80
2021/01/21 19:32:12;;;;;;;3.73;1.77;;;;;;;;;;4393173;32;20503;-79
2021/01/21 19:34:37;;;;;;;7.60;2.10;;;;;;;;;;4421529;32;20122;-78
2021/01/21 19:37:28;;;;;;;5.33;2.00;;;;;;;;;;4422822;32;20559;-78
2021/01/21 19:39:54;;;;;;;7.13;1.70;;;;;;;;;;4408286;32;20150;-78
2021/01/21 19:42:25;;;;;;;5.50;1.90;;;;;;;;;;4396233;32;20151;-77
2021/01/21 19:44:57;;;;;;;11.87;3.60;;;;;;;;;;4387650;32;20609;-77
2021/01/21 19:47:22;;;;;;;10.50;3.27;;;;;;;;;;4392620;32;20190;-77
2021/01/21 19:49:48;;;;;;;9.13;3.57;;;;;;;;;;4390407;32;20189;-78
2021/01/21 19:52:13;;;;;;;10.53;4.30;;;;;;;;;;4390258;32;20158;-77
2021/01/21 19:54:46;;;;;;;13.13;5.70;;;;;;;;;;4392888;32;20161;-78
2021/01/21 19:57:12;;;;;;;9.07;5.00;;;;;;;;;;4380707;32;20580;-78
2021/01/21 19:59:46;;;;;;;9.67;5.17;;;;;;;;;;4393330;32;20177;-78
2021/01/21 20:02:11;;;;;;;10.73;5.00;;;;;;;;;;4393345;32;20246;-77
2021/01/21 20:04:39;;;;;;;12.37;4.53;;;;;;;;;;4392541;32;20157;-77
2021/01/21 20:07:29;;;;;;;11.83;4.67;;;;;;;;;;4392412;32;20639;-77
2021/01/21 20:10:06;;;;;;;10.83;4.17;;;;;;;;;;4406645;32;20202;-77
2021/01/21 20:12:31;;;;;;;10.03;4.23;;;;;;;;;;4391722;32;20176;-77
2021/01/21 20:15:02;;;;;;;5.93;2.90;;;;;;;;;;4392594;32;20150;-77
2021/01/21 20:17:27;;;;;;;4.87;2.50;;;;;;;;;;4392780;32;20449;-76
2021/01/21 20:19:55;;;;;;;7.47;2.90;;;;;;;;;;4405419;32;20182;-75
2021/01/21 20:22:20;;;;;;;7.17;2.70;;;;;;;;;;4401772;32;20279;-76
2021/01/21 20:24:46;;;;;;;4.53;2.30;;;;;;;;;;4406409;32;20130;-75
2021/01/21 20:27:14;;;;;;;5.90;2.00;;;;;;;;;;4377104;32;20215;-75
2021/01/21 20:29:40;;;;;;;5.67;1.80;;;;;;;;;;4385425;32;20646;-76
2021/01/21 20:32:05;;;;;;;4.77;1.77;;;;;;;;;;4392372;32;20185;-75
2021/01/21 20:34:30;;;;;;;3.83;1.60;;;;;;;;;;4405252;32;20448;-77
2021/01/21 20:36:56;;;;;;;3.00;1.63;;;;;;;;;;4405717;32;20142;-76
2021/01/21 20:39:21;;;;;;;4.57;2.00;;;;;;;;;;4391871;32;20170;-76
2021/01/21 20:41:46;;;;;;;5.37;1.70;;;;;;;;;;4392300;32;20176;-76
2021/01/21 20:44:11;;;;;;;3.47;1.73;;;;;;;;;;4392272;32;20646;-76
2021/01/21 20:46:37;;;;;;;2.00;1.10;;;;;;;;;;4392632;32;20163;-75
2021/01/21 20:49:02;;;;;;;1.77;1.00;;;;;;;;;;4391565;32;20205;-76
2021/01/21 20:51:30;;;;;;;2.57;1.20;;;;;;;;;;4392032;32;20157;-76
2021/01/21 20:53:56;;;;;;;2.83;1.83;;;;;;;;;;4391768;32;20184;-76
2021/01/21 20:56:22;;;;;;;6.27;2.00;;;;;;;;;;4391321;32;20587;-76
2021/01/21 20:58:48;;;;;;;3.23;1.63;;;;;;;;;;4391925;32;20181;-75
2021/01/21 21:04:06;;;;;;;4.00;2.17;;;;;;;;;;4379109;32;20469;-76
2021/01/21 21:06:32;;;;;;;5.00;2.60;;;;;;;;;;4377120;32;20209;-76
2021/01/21 21:08:57;;;;;;;4.93;2.77;;;;;;;;;;4376807;32;20155;-76
2021/01/21 21:11:22;;;;;;;2.83;1.90;;;;;;;;;;4382121;32;20718;-76
2021/01/21 21:13:50;;;;;;;5.30;2.10;;;;;;;;;;4377753;32;20235;-75
2021/01/21 21:16:16;;;;;;;4.67;2.07;;;;;;;;;;4392114;32;20223;-77
2021/01/21 21:18:41;;;;;;;4.97;2.20;;;;;;;;;;4392054;32;20158;-77
2021/01/21 21:21:06;;;;;;;6.10;2.30;;;;;;;;;;4391906;32;20169;-77
2021/01/21 21:23:47;;;;;;;5.40;2.00;;;;;;;;;;4392476;32;20212;-77
2021/01/21 21:26:13;;;;;;;4.17;2.00;;;;;;;;;;4405628;32;20169;-77
2021/01/21 21:28:38;;;;;;;4.07;2.20;;;;;;;;;;4382447;32;20216;-77
2021/01/21 21:31:03;;;;;;;4.17;2.33;;;;;;;;;;4390482;32;20153;-77
2021/01/21 21:33:35;;;;;;;4.43;2.50;;;;;;;;;;4377046;32;20226;-77
2021/01/21 21:36:01;;;;;;;6.80;3.10;;;;;;;;;;4391514;32;20166;-77
2021/01/21 21:38:27;;;;;;;5.37;2.50;;;;;;;;;;4391184;32;20151;-78
2021/01/21 21:41:02;;;;;;;8.63;3.13;;;;;;;;;;4403808;32;20593;-78
2021/01/21 21:43:32;;;;;;;6.13;3.37;;;;;;;;;;4404400;32;20186;-77
2021/01/21 21:46:05;;;;;;;4.27;2.83;;;;;;;;;;4404204;32;20478;-76
2021/01/21 21:48:31;;;;;;;3.70;2.50;;;;;;;;;;4404749;32;20212;-77
2021/01/21 21:51:07;;;;;;;5.50;2.67;;;;;;;;;;4420453;32;20562;-77
2021/01/21 21:53:32;;;;;;;5.63;2.90;;;;;;;;;;4406432;32;20153;-77
2021/01/21 21:56:01;;;;;;;7.17;3.30;;;;;;;;;;4406840;32;20193;-77
2021/01/21 21:58:26;;;;;;;6.90;3.13;;;;;;;;;;4407088;32;20162;-77
2021/01/21 22:01:02;;;;;;;6.43;3.20;;;;;;;;;;4395349;32;20177;-76
2021/01/21 22:03:27;;;;;;;3.13;2.23;;;;;;;;;;4391453;32;20177;-77
2021/01/21 22:06:03;;;;;;;2.00;1.40;;;;;;;;;;4405118;32;20525;-77
2021/01/21 22:08:31;;;;;;;3.10;1.60;;;;;;;;;;4389688;32;20211;-78
2021/01/21 22:10:56;;;;;;;1.90;1.40;;;;;;;;;;4391983;32;20168;-77
2021/01/21 22:13:35;;;;;;;2.27;1.00;;;;;;;;;;4404989;32;20130;-77
2021/01/21 22:16:03;;;;;;;2.63;1.20;;;;;;;;;;4391790;32;20469;-77
2021/01/21 22:18:31;;;;;;;1.50;0.80;;;;;;;;;;4391607;32;20173;-76
2021/01/21 22:20:57;;;;;;;0.90;0.80;;;;;;;;;;4391465;32;20273;-77
2021/01/21 22:23:33;;;;;;;2.00;0.80;;;;;;;;;;4404700;32;20173;-76
2021/01/21 22:26:10;;;;;;;3.07;1.10;;;;;;;;;;4391127;32;20269;-76
2021/01/21 22:28:38;;;;;;;1.10;1.00;;;;;;;;;;4410497;32;20134;-76
2021/01/21 22:31:04;;;;;;;1.43;1.00;;;;;;;;;;4418563;32;20609;-76
2021/01/21 22:33:29;;;;;;;1.93;1.40;;;;;;;;;;4400678;32;20229;-77
2021/01/21 22:35:57;;;;;;;1.93;1.30;;;;;;;;;;4404553;32;20134;-77
2021/01/21 22:38:23;;;;;;;2.33;1.60;;;;;;;;;;4390797;32;20189;-78
2021/01/21 22:40:48;;;;;;;2.27;1.60;;;;;;;;;;4390988;32;20161;-78
2021/01/21 22:43:14;;;;;;;3.03;2.30;;;;;;;;;;4405245;32;20156;-76
2021/01/21 22:45:39;;;;;;;3.57;2.43;;;;;;;;;;4390769;32;20207;-76
2021/01/21 22:48:05;;;;;;;4.80;2.83;;;;;;;;;;4391054;32;20146;-76
2021/01/21 22:50:30;;;;;;;3.80;3.03;;;;;;;;;;4390615;32;20532;-77
2021/01/21 22:52:55;;;;;;;4.83;3.33;;;;;;;;;;4390524;32;20203;-75
2021/01/21 22:55:21;;;;;;;7.50;3.83;;;;;;;;;;4390843;32;20166;-76
2021/01/21 22:57:46;;;;;;;6.10;4.40;;;;;;;;;;4390513;32;20253;-77
2021/01/21 23:00:15;;;;;;;7.50;4.90;;;;;;;;;;4390576;32;20269;-77
2021/01/21 23:02:40;;;;;;;6.17;4.97;;;;;;;;;;4391046;32;20225;-76
2021/01/21 23:05:07;;;;;;;6.57;4.97;;;;;;;;;;4404394;32;20173;-77
2021/01/21 23:07:32;;;;;;;8.60;6.27;;;;;;;;;;4391171;32;20190;-76
2021/01/21 23:09:57;;;;;;;9.33;6.20;;;;;;;;;;4404730;32;20164;-78
2021/01/21 23:12:23;;;;;;;11.43;6.83;;;;;;;;;;4390756;32;20157;-78
2021/01/21 23:14:49;;;;;;;10.70;6.00;;;;;;;;;;4390743;32;20654;-79
2021/01/21 23:17:15;;;;;;;9.40;6.87;;;;;;;;;;4405236;32;20154;-77
2021/01/21 23:19:40;;;;;;;8.83;5.83;;;;;;;;;;4404401;32;20134;-76
2021/01/21 23:22:05;;;;;;;8.50;5.93;;;;;;;;;;4391139;32;20177;-77
2021/01/21 23:24:31;;;;;;;7.20;4.63;;;;;;;;;;4390875;32;20227;-76
2021/01/21 23:26:56;;;;;;;7.03;4.60;;;;;;;;;;4390901;32;20165;-76
2021/01/21 23:29:21;;;;;;;7.60;4.17;;;;;;;;;;4390624;32;20219;-76
2021/01/21 23:31:46;;;;;;;10.17;5.50;;;;;;;;;;4390618;32;20575;-77
2021/01/21 23:34:12;;;;;;;8.93;4.83;;;;;;;;;;4404973;32;20215;-75